Terminal Aerodrome Forecast
Issued by NWS Tulsa, OK

Home | Current Version | Previous Version | Text Only | Print | Product List | Glossary On
Versions: 1 2 3 4 5 6 7 8 9 10 11 12 13 14 15
000
FTUS44 KTSA 292300
TAFFSM
TAF
KFSM 292320Z 3000/3024 12007KT P6SM -RA OVC100
      TEMPO 3000/3002 3SM TSRA BKN015CB
     FM300200 20003KT P6SM -RA BKN035
      TEMPO 3002/3005 3SM TSRA BKN015CB
     FM300500 31004KT 5SM TSRA BKN025CB
     FM301100 27005KT P6SM BKN025
      TEMPO 3012/3015 5SM BR BKN015=

USA.gov is the U.S. government's official web portal to all federal, state and local government web resources and services.